Time;durP1;ratioP1;P1;durP2;ratioP2;P2;SDS_P1;SDS_P2;PMS_P1;PMS_P2;Temp;Humidity;BMP_temperature;BMP_pressure;BME280_temperature;BME280_humidity;BME280_pressure;Samples;Min_cycle;Max_cycle;Signal;HPM_P1;HPM_P2
2023/12/04 00:04:06;;;;;;;;;;;0.50;99.90;;;;;;6726722;88;20039;-80
2023/12/04 00:14:07;;;;;;;;;;;0.50;99.90;;;;;;6732641;88;20125;-78
2023/12/04 00:24:08;;;;;;;;;;;0.40;99.90;;;;;;6730214;88;20053;-78
2023/12/04 00:34:08;;;;;;;;;;;0.40;99.90;;;;;;6719607;88;20041;-78
2023/12/04 00:44:09;;;;;;;;;;;0.30;99.90;;;;;;6716561;88;20130;-78
2023/12/04 00:54:10;;;;;;;;;;;0.30;99.90;;;;;;6733289;88;20066;-79
2023/12/04 01:04:10;;;;;;;;;;;0.30;99.90;;;;;;6733159;88;20093;-79
2023/12/04 01:14:11;;;;;;;;;;;0.20;99.90;;;;;;6733073;88;20048;-78
2023/12/04 01:24:12;;;;;;;;;;;0.20;99.90;;;;;;6713335;88;20283;-78
2023/12/04 01:34:12;;;;;;;;;;;0.20;99.90;;;;;;6713939;88;20020;-78
2023/12/04 01:44:12;;;;;;;;;;;0.20;99.90;;;;;;6713755;88;20833;-79
2023/12/04 01:54:13;;;;;;;;;;;0.20;99.90;;;;;;6728738;88;20028;-78
2023/12/04 02:04:14;;;;;;;;;;;0.20;99.90;;;;;;6731979;88;20807;-80
2023/12/04 02:14:14;;;;;;;;;;;0.20;99.90;;;;;;6732228;88;20101;-78
2023/12/04 02:24:15;;;;;;;;;;;0.10;99.90;;;;;;6732202;88;20031;-78
2023/12/04 02:34:15;;;;;;;;;;;0.10;99.90;;;;;;6717175;88;20059;-79
2023/12/04 02:44:16;;;;;;;;;;;0.10;99.90;;;;;;6717669;88;20307;-78
2023/12/04 02:54:16;;;;;;;;;;;0.00;99.90;;;;;;6720771;88;20090;-77
2023/12/04 03:04:18;;;;;;;;;;;0.00;99.90;;;;;;6734536;88;20086;-78
2023/12/04 03:14:19;;;;;;;;;;;-0.10;99.90;;;;;;6734624;88;20022;-77
2023/12/04 03:24:19;;;;;;;;;;;-0.10;99.90;;;;;;6731396;88;20086;-78
2023/12/04 03:34:20;;;;;;;;;;;-0.10;99.90;;;;;;6718582;88;20125;-78
2023/12/04 03:54:23;;;;;;;;;;;-0.20;99.90;;;;;;6735186;88;20074;-81
2023/12/04 04:04:24;;;;;;;;;;;-0.20;99.90;;;;;;6733967;88;20080;-80
2023/12/04 04:14:24;;;;;;;;;;;-0.20;99.90;;;;;;6733905;88;20023;-80
2023/12/04 04:24:25;;;;;;;;;;;-0.20;99.90;;;;;;6733715;88;20131;-81
2023/12/04 04:34:25;;;;;;;;;;;-0.20;99.90;;;;;;6728691;88;20058;-80
2023/12/04 04:44:26;;;;;;;;;;;-0.20;99.90;;;;;;6716526;88;20104;-81
2023/12/04 04:54:26;;;;;;;;;;;-0.30;99.90;;;;;;6723051;88;20083;-80
2023/12/04 05:04:26;;;;;;;;;;;-0.20;99.90;;;;;;6729669;88;20039;-80
2023/12/04 05:14:27;;;;;;;;;;;-0.30;99.90;;;;;;6717989;88;20040;-81
2023/12/04 05:24:27;;;;;;;;;;;-0.30;99.90;;;;;;6716033;88;20052;-81
2023/12/04 05:34:28;;;;;;;;;;;-0.30;99.90;;;;;;6715848;88;20036;-81
2023/12/04 05:44:28;;;;;;;;;;;-0.20;99.90;;;;;;6711867;88;20329;-83
2023/12/04 05:54:29;;;;;;;;;;;-0.30;99.90;;;;;;6722748;88;20068;-81
2023/12/04 06:04:29;;;;;;;;;;;-0.40;99.90;;;;;;6725545;88;20058;-81
2023/12/04 06:14:30;;;;;;;;;;;-0.30;99.90;;;;;;6730191;88;20110;-82
2023/12/04 06:24:31;;;;;;;;;;;-0.20;99.90;;;;;;6709685;88;20057;-82
2023/12/04 06:34:31;;;;;;;;;;;-0.20;99.90;;;;;;6712484;88;20079;-82
2023/12/04 06:44:32;;;;;;;;;;;-0.10;99.90;;;;;;6707965;88;20063;-80
2023/12/04 06:54:33;;;;;;;;;;;-0.10;99.90;;;;;;6706053;88;20052;-81
2023/12/04 07:04:33;;;;;;;;;;;0.10;99.90;;;;;;6704540;88;20517;-82
2023/12/04 07:14:34;;;;;;;;;;;0.20;99.90;;;;;;6721365;88;20112;-80
2023/12/04 07:24:34;;;;;;;;;;;0.20;99.90;;;;;;6719035;88;20230;-82
2023/12/04 07:34:34;;;;;;;;;;;0.10;99.90;;;;;;6728990;88;20055;-80
2023/12/04 07:44:35;;;;;;;;;;;0.10;99.90;;;;;;6721286;88;20058;-82
2023/12/04 07:54:36;;;;;;;;;;;0.10;99.90;;;;;;6716814;88;20705;-82
2023/12/04 08:04:36;;;;;;;;;;;0.10;99.90;;;;;;6712812;88;20113;-80
2023/12/04 08:14:37;;;;;;;;;;;0.00;99.90;;;;;;6716006;88;20024;-80
2023/12/04 08:24:38;;;;;;;;;;;0.10;99.90;;;;;;6716455;88;20071;-79
2023/12/04 08:34:38;;;;;;;;;;;0.10;99.90;;;;;;6715744;88;20117;-81
2023/12/04 08:44:40;;;;;;;;;;;0.20;99.90;;;;;;6715670;88;20051;-82
2023/12/04 08:54:43;;;;;;;;;;;0.20;99.90;;;;;;6716030;88;20132;-82
2023/12/04 09:04:43;;;;;;;;;;;0.30;99.90;;;;;;6715810;88;20085;-81
2023/12/04 09:14:44;;;;;;;;;;;0.40;99.90;;;;;;6715758;88;20098;-82
2023/12/04 09:24:44;;;;;;;;;;;0.40;99.90;;;;;;6715796;88;20075;-82
2023/12/04 09:34:45;;;;;;;;;;;0.40;99.90;;;;;;6686331;89;20079;-82
2023/12/04 09:54:51;;;;;;;;;;;0.60;99.90;;;;;;6704453;88;20170;-80
2023/12/04 10:04:51;;;;;;;;;;;0.70;99.90;;;;;;6717669;88;20267;-79
2023/12/04 10:15:06;;;;;;;;;;;0.70;99.90;;;;;;6722808;88;20075;-78
2023/12/04 10:25:14;;;;;;;;;;;0.70;99.90;;;;;;6709760;88;20060;-80
2023/12/04 10:35:14;;;;;;;;;;;0.60;99.90;;;;;;6708401;89;20116;-80
2023/12/04 10:45:15;;;;;;;;;;;0.70;99.90;;;;;;6710113;88;20063;-80
2023/12/04 10:55:15;;;;;;;;;;;0.80;99.90;;;;;;6708346;88;20526;-80
2023/12/04 11:05:21;;;;;;;;;;;0.90;99.90;;;;;;6740480;88;20084;-80
2023/12/04 11:15:23;;;;;;;;;;;0.90;99.90;;;;;;6709306;88;20664;-80
2023/12/04 11:25:24;;;;;;;;;;;0.90;99.90;;;;;;6705468;89;20085;-80
2023/12/04 11:35:25;;;;;;;;;;;0.80;99.90;;;;;;6708701;88;20091;-80
2023/12/04 11:45:26;;;;;;;;;;;0.80;99.90;;;;;;6711222;88;20094;-81
2023/12/04 11:55:26;;;;;;;;;;;0.60;99.90;;;;;;6710597;88;20051;-81
2023/12/04 12:05:27;;;;;;;;;;;0.70;99.90;;;;;;6708845;88;20081;-81
2023/12/04 12:15:29;;;;;;;;;;;0.80;99.90;;;;;;6714274;88;20064;-81
2023/12/04 12:25:30;;;;;;;;;;;0.80;99.90;;;;;;6711279;88;20080;-80
2023/12/04 12:35:30;;;;;;;;;;;0.90;99.90;;;;;;6711420;88;20028;-81
2023/12/04 12:45:38;;;;;;;;;;;0.80;99.90;;;;;;6710003;88;20062;-80
2023/12/04 12:55:40;;;;;;;;;;;0.90;99.90;;;;;;6707765;88;20109;-81
2023/12/04 13:05:40;;;;;;;;;;;1.00;99.90;;;;;;6709076;88;20073;-81
2023/12/04 13:15:41;;;;;;;;;;;1.10;99.90;;;;;;6708834;88;20578;-81
2023/12/04 13:25:43;;;;;;;;;;;1.10;99.90;;;;;;6706296;88;20051;-80
2023/12/04 13:35:44;;;;;;;;;;;1.20;99.90;;;;;;6706443;89;20017;-80
2023/12/04 13:45:45;;;;;;;;;;;1.10;99.90;;;;;;6709470;88;20197;-80
2023/12/04 14:05:46;;;;;;;;;;;1.20;99.90;;;;;;6708436;89;20036;-80
2023/12/04 14:15:46;;;;;;;;;;;1.10;99.90;;;;;;6706340;89;20089;-80
2023/12/04 14:25:47;;;;;;;;;;;1.10;99.90;;;;;;6707402;89;20072;-80
2023/12/04 14:35:47;;;;;;;;;;;1.10;99.90;;;;;;6707557;88;20048;-80
2023/12/04 14:45:48;;;;;;;;;;;1.10;99.90;;;;;;6702187;88;20062;-79
2023/12/04 15:06:36;;;;;;;;;;;1.20;99.90;;;;;;6706010;88;20052;-80
2023/12/04 15:16:47;;;;;;;;;;;1.10;99.90;;;;;;6710821;88;20083;-81
2023/12/04 15:26:47;;;;;;;;;;;1.10;99.90;;;;;;6707655;89;20097;-81
2023/12/04 15:36:48;;;;;;;;;;;1.10;99.90;;;;;;6705715;88;20068;-82
2023/12/04 15:56:52;;;;;;;;;;;1.10;99.90;;;;;;6715743;88;20172;-79
2023/12/04 16:06:52;;;;;;;;;;;1.20;99.90;;;;;;6712570;88;20173;-79
2023/12/04 16:16:52;;;;;;;;;;;1.20;99.90;;;;;;6695957;88;20068;-79
2023/12/04 16:26:55;;;;;;;;;;;1.20;99.90;;;;;;6695429;88;20153;-78
2023/12/04 16:36:56;;;;;;;;;;;1.30;99.90;;;;;;6685851;88;20582;-79
2023/12/04 16:46:57;;;;;;;;;;;1.30;99.90;;;;;;6691538;88;20093;-79
2023/12/04 16:56:57;;;;;;;;;;;1.40;99.90;;;;;;6690315;88;20070;-79
2023/12/04 17:06:58;;;;;;;;;;;1.30;99.90;;;;;;6692074;88;20067;-80
2023/12/04 17:16:58;;;;;;;;;;;1.30;99.90;;;;;;6695585;88;20055;-79
2023/12/04 17:26:59;;;;;;;;;;;1.20;99.90;;;;;;6699739;88;20075;-81
2023/12/04 17:36:59;;;;;;;;;;;0.90;99.90;;;;;;6699119;88;20118;-80
2023/12/04 17:47:00;;;;;;;;;;;0.80;99.90;;;;;;6694971;88;20103;-78
2023/12/04 17:57:00;;;;;;;;;;;0.80;99.90;;;;;;6706729;88;20073;-79
2023/12/04 18:07:02;;;;;;;;;;;0.80;99.90;;;;;;6700597;88;20055;-80
2023/12/04 18:17:03;;;;;;;;;;;0.80;99.90;;;;;;6693587;88;20058;-79
2023/12/04 18:27:03;;;;;;;;;;;0.90;99.90;;;;;;6700265;88;20055;-78
2023/12/04 18:37:11;;;;;;;;;;;1.00;99.90;;;;;;6712536;88;20090;-80
2023/12/04 18:47:15;;;;;;;;;;;1.10;99.90;;;;;;6713319;88;20672;-79
2023/12/04 18:57:15;;;;;;;;;;;1.10;99.90;;;;;;6711253;88;20082;-79
2023/12/04 19:07:16;;;;;;;;;;;1.20;99.90;;;;;;6712581;88;20124;-80
2023/12/04 19:17:16;;;;;;;;;;;1.20;99.90;;;;;;6711981;88;20077;-80
2023/12/04 19:27:17;;;;;;;;;;;1.30;99.90;;;;;;6714196;88;20084;-79
2023/12/04 19:37:17;;;;;;;;;;;1.40;99.90;;;;;;6709197;88;20545;-77
2023/12/04 19:47:18;;;;;;;;;;;1.40;99.90;;;;;;6709115;88;20129;-79
2023/12/04 19:57:21;;;;;;;;;;;1.50;99.90;;;;;;6708621;88;20182;-77
2023/12/04 20:07:21;;;;;;;;;;;1.60;99.90;;;;;;6704712;88;20556;-78
2023/12/04 20:17:23;;;;;;;;;;;1.60;99.90;;;;;;6704718;88;20055;-78
2023/12/04 20:27:24;;;;;;;;;;;1.70;99.90;;;;;;6703674;88;20102;-77
2023/12/04 20:37:24;;;;;;;;;;;1.70;99.90;;;;;;6702944;88;20630;-79
2023/12/04 20:47:25;;;;;;;;;;;1.90;99.90;;;;;;6706430;88;20058;-78
2023/12/04 20:57:25;;;;;;;;;;;1.80;99.90;;;;;;6707650;88;20084;-79
2023/12/04 21:07:26;;;;;;;;;;;1.90;99.90;;;;;;6707717;88;20265;-78
2023/12/04 21:17:26;;;;;;;;;;;1.90;99.90;;;;;;6714100;88;20047;-78
2023/12/04 21:27:30;;;;;;;;;;;2.00;99.90;;;;;;6709511;88;20569;-78
2023/12/04 21:37:30;;;;;;;;;;;2.00;99.90;;;;;;6706747;88;20063;-79
2023/12/04 21:47:31;;;;;;;;;;;2.10;99.90;;;;;;6705796;88;20145;-78
2023/12/04 21:57:31;;;;;;;;;;;2.10;99.90;;;;;;6708388;88;20062;-79
2023/12/04 22:07:32;;;;;;;;;;;2.20;99.90;;;;;;6714719;88;20051;-78
2023/12/04 22:17:32;;;;;;;;;;;2.20;99.90;;;;;;6707255;88;20067;-78
2023/12/04 22:27:32;;;;;;;;;;;2.30;99.90;;;;;;6708897;88;20082;-78
2023/12/04 22:37:33;;;;;;;;;;;2.40;99.90;;;;;;6708530;88;20079;-80
2023/12/04 22:47:33;;;;;;;;;;;2.40;99.90;;;;;;6711201;88;20101;-77
2023/12/04 22:57:34;;;;;;;;;;;2.50;99.90;;;;;;6713823;88;20125;-77
2023/12/04 23:07:35;;;;;;;;;;;2.60;99.90;;;;;;6707591;88;20065;-78
2023/12/04 23:17:35;;;;;;;;;;;2.50;99.90;;;;;;6707695;88;20110;-78
2023/12/04 23:27:36;;;;;;;;;;;2.60;99.90;;;;;;6707093;88;20088;-78
2023/12/04 23:37:36;;;;;;;;;;;2.70;99.90;;;;;;6706151;88;20512;-77
2023/12/04 23:47:37;;;;;;;;;;;2.80;99.90;;;;;;6705580;88;20056;-80
2023/12/04 23:57:37;;;;;;;;;;;2.90;99.90;;;;;;6708300;88;20060;-78
